OLBA

Beirut Rafic Hariri International Airport

Beirut, Lebanon
TAF OLBA 182200Z 1900/2006 35008KT 9999 SCT026 BECMG 1909/1912 03010KT FEW026
Issued Valid From Valid To
Jan-18 @ 22:00 UTC
(4 hours ago)
Jan-19 @ 00:00 UTC
(2 hours ago)
Jan-20 @ 06:00 UTC
(-1 days ago)
Jan-19 @ 00:00 to Jan-19 @ 09:00
TAF OLBA 182200Z 1900/2006 35008KT 9999 SCT026
Wind Visibility Clouds
350° at 8 knots 10,000+ meters
  • Scattered at 2,600' AGL
Becoming Jan-19 @ 09:00 to Jan-20 @ 06:00
BECMG 1909/1912 03010KT FEW026
Wind Visibility Clouds
30° at 10 knots 10,000+ meters
  • Few at 2,600' AGL
TAF OLBA 182200Z 1900/2006 35008KT 9999 SCT026 BECMG 1909/1912 03010KT FEW026
Issued Jan-18 @ 22:00 UTC
(4 hours ago)
Valid From Jan-19 @ 00:00 UTC
(2 hours ago)
Valid To Jan-20 @ 06:00 UTC
(-1 days ago)
Jan-19 @ 00:00 - Jan-19 @ 09:00
Wind Visibility
350° at 8 knots 10,000+ meters
Clouds
  • Scattered at 2,600' AGL
Becoming Jan-19 @ 09:00 - Jan-20 @ 06:00
Wind Visibility
30° at 10 knots 10,000+ meters
Clouds
  • Few at 2,600' AGL